createdAt,value
2024-05-09T00:00:40.454Z,985.69
2024-05-09T00:01:38.832Z,985.72
2024-05-09T00:02:38.790Z,985.69
2024-05-09T00:03:38.811Z,985.63
2024-05-09T00:04:38.744Z,985.63
2024-05-09T00:05:38.940Z,985.61
2024-05-09T00:06:38.683Z,985.65
2024-05-09T00:07:38.664Z,985.61
2024-05-09T00:08:39.065Z,985.64
2024-05-09T00:09:38.860Z,985.59
2024-05-09T00:10:39.889Z,985.70
2024-05-09T00:11:38.655Z,985.66
2024-05-09T00:12:38.596Z,985.67
2024-05-09T00:13:38.583Z,985.61
2024-05-09T00:14:38.680Z,985.67
2024-05-09T00:15:38.575Z,985.69
2024-05-09T00:16:38.542Z,985.64
2024-05-09T00:17:38.980Z,985.70
2024-05-09T00:18:38.580Z,985.66
2024-05-09T00:19:38.622Z,985.62
2024-05-09T00:20:40.854Z,985.60
2024-05-09T00:21:38.480Z,985.62
2024-05-09T00:22:38.461Z,985.62
2024-05-09T00:23:38.521Z,985.63
2024-05-09T00:24:38.451Z,985.58
2024-05-09T00:25:38.443Z,985.61
2024-05-09T00:26:38.480Z,985.65
2024-05-09T00:27:38.389Z,985.62
2024-05-09T00:28:38.386Z,985.63
2024-05-09T00:29:38.417Z,985.62
2024-05-09T00:30:38.379Z,985.62
2024-05-09T00:31:38.344Z,985.60
2024-05-09T00:32:38.521Z,985.57
2024-05-09T00:33:38.518Z,985.67
2024-05-09T00:34:38.296Z,985.65
2024-05-09T00:35:38.830Z,985.65
2024-05-09T00:36:38.269Z,985.74
2024-05-09T00:37:38.256Z,985.65
2024-05-09T00:38:38.324Z,985.71
2024-05-09T00:39:38.235Z,985.63
2024-05-09T00:40:40.992Z,985.64
2024-05-09T00:41:38.336Z,985.55
2024-05-09T00:42:38.188Z,985.60
2024-05-09T00:43:38.192Z,985.56
2024-05-09T00:44:38.235Z,985.55
2024-05-09T00:45:38.217Z,985.56
2024-05-09T00:46:38.135Z,985.59
2024-05-09T00:47:38.362Z,985.57
2024-05-09T00:48:38.217Z,985.59
2024-05-09T00:49:38.206Z,985.55
2024-05-09T00:50:38.735Z,985.60
2024-05-09T00:51:38.064Z,985.62
2024-05-09T00:52:38.050Z,985.64
2024-05-09T00:53:38.111Z,985.60
2024-05-09T00:54:38.034Z,985.61
2024-05-09T00:55:38.030Z,985.59
2024-05-09T00:56:38.036Z,985.59
2024-05-09T00:57:38.243Z,985.60
2024-05-09T00:58:37.964Z,985.63
2024-05-09T00:59:38.029Z,985.65
2024-05-09T01:00:40.333Z,985.70
2024-05-09T01:01:38.017Z,985.59
2024-05-09T01:02:38.015Z,985.58
2024-05-09T01:03:38.347Z,985.50
2024-05-09T01:04:37.951Z,985.52
2024-05-09T01:05:37.905Z,985.57
2024-05-09T01:06:37.858Z,985.58
2024-05-09T01:07:37.845Z,985.48
2024-05-09T01:08:37.870Z,985.46
2024-05-09T01:09:37.818Z,985.51
2024-05-09T01:10:37.819Z,985.56
2024-05-09T01:11:37.864Z,985.55
2024-05-09T01:12:37.859Z,985.49
2024-05-09T01:13:37.776Z,985.55
2024-05-09T01:14:37.908Z,985.50
2024-05-09T01:15:37.789Z,985.57
2024-05-09T01:16:37.882Z,985.60
2024-05-09T01:17:37.977Z,985.53
2024-05-09T01:18:37.757Z,985.61
2024-05-09T01:19:37.786Z,985.64
2024-05-09T01:20:42.191Z,985.59
2024-05-09T01:21:38.689Z,985.55
2024-05-09T01:22:37.943Z,985.54
2024-05-09T01:23:37.738Z,985.48
2024-05-09T01:24:37.614Z,985.50
2024-05-09T01:25:37.641Z,985.50
2024-05-09T01:26:37.618Z,985.51
2024-05-09T01:27:37.578Z,985.53
2024-05-09T01:28:37.556Z,985.52
2024-05-09T01:29:37.627Z,985.48
2024-05-09T01:30:38.349Z,985.50
2024-05-09T01:31:37.540Z,985.48
2024-05-09T01:32:37.575Z,985.50
2024-05-09T01:33:37.755Z,985.42
2024-05-09T01:34:37.482Z,985.50
2024-05-09T01:35:37.726Z,985.48
2024-05-09T01:36:37.852Z,985.50
2024-05-09T01:37:37.733Z,985.50
2024-05-09T01:38:37.496Z,985.43
2024-05-09T01:39:37.411Z,985.43
2024-05-09T01:40:39.926Z,985.44
2024-05-09T01:41:37.435Z,985.40
2024-05-09T01:42:37.363Z,985.42
2024-05-09T01:43:37.373Z,985.43
2024-05-09T01:44:37.408Z,985.48
2024-05-09T01:45:37.498Z,985.44
2024-05-09T01:46:37.325Z,985.47
2024-05-09T01:47:37.514Z,985.43
2024-05-09T01:48:37.390Z,985.40
2024-05-09T01:49:37.388Z,985.43
2024-05-09T01:50:40.973Z,985.48
2024-05-09T01:51:37.254Z,985.57
2024-05-09T01:52:37.233Z,985.54
2024-05-09T01:53:37.340Z,985.57
2024-05-09T01:54:37.213Z,985.55
2024-05-09T01:55:37.459Z,985.52
2024-05-09T01:56:37.236Z,985.56
2024-05-09T01:57:37.710Z,985.53
2024-05-09T01:58:37.145Z,985.48
2024-05-09T01:59:37.155Z,985.51
2024-05-09T02:00:40.998Z,985.53
2024-05-09T02:01:55.679Z,985.58
2024-05-09T02:02:38.224Z,985.58
2024-05-09T02:03:37.243Z,985.52
2024-05-09T02:04:37.088Z,985.49
2024-05-09T02:05:37.780Z,985.52
2024-05-09T02:06:37.040Z,985.59
2024-05-09T02:07:37.023Z,985.54
2024-05-09T02:08:37.191Z,985.49
2024-05-09T02:09:37.344Z,985.53
2024-05-09T02:10:37.530Z,985.45
2024-05-09T02:11:37.081Z,985.48
2024-05-09T02:12:36.955Z,985.47
2024-05-09T02:13:36.941Z,985.48
2024-05-09T02:14:36.993Z,985.45
2024-05-09T02:15:36.921Z,985.51
2024-05-09T02:16:36.917Z,985.51
2024-05-09T02:17:37.138Z,985.50
2024-05-09T02:18:36.918Z,985.54
2024-05-09T02:19:36.904Z,985.56
2024-05-09T02:20:37.214Z,985.59
2024-05-09T02:21:36.827Z,985.61
2024-05-09T02:22:36.824Z,985.57
2024-05-09T02:23:36.987Z,985.55
2024-05-09T02:24:36.794Z,985.56
2024-05-09T02:25:36.818Z,985.54
2024-05-09T02:26:36.796Z,985.61
2024-05-09T02:27:36.748Z,985.54
2024-05-09T02:28:36.740Z,985.57
2024-05-09T02:29:36.771Z,985.57
2024-05-09T02:30:40.603Z,985.63
2024-05-09T02:31:36.696Z,985.57
2024-05-09T02:32:36.786Z,985.65
2024-05-09T02:33:36.868Z,985.62
2024-05-09T02:34:36.731Z,985.59
2024-05-09T02:35:36.682Z,985.53
2024-05-09T02:36:36.625Z,985.63
2024-05-09T02:37:36.621Z,985.59
2024-05-09T02:38:36.691Z,985.65
2024-05-09T02:39:36.588Z,985.56
2024-05-09T02:40:38.904Z,985.57
2024-05-09T02:41:36.825Z,985.63
2024-05-09T02:42:36.545Z,985.62
2024-05-09T02:43:36.539Z,985.59
2024-05-09T02:44:36.577Z,985.57
2024-05-09T02:45:36.512Z,985.58
2024-05-09T02:46:36.488Z,985.58
2024-05-09T02:47:36.609Z,985.54
2024-05-09T02:48:36.607Z,985.67
2024-05-09T02:49:36.805Z,985.66
2024-05-09T02:50:39.320Z,985.61
2024-05-09T02:51:36.417Z,985.72
2024-05-09T02:52:36.405Z,985.60
2024-05-09T02:53:36.469Z,985.63
2024-05-09T02:54:36.384Z,985.66
2024-05-09T02:55:36.365Z,985.66
2024-05-09T02:56:36.400Z,985.64
2024-05-09T02:57:36.345Z,985.62
2024-05-09T02:58:36.324Z,985.59
2024-05-09T02:59:36.363Z,985.63
2024-05-09T03:00:39.653Z,985.64
2024-05-09T03:01:36.361Z,985.70
2024-05-09T03:02:36.366Z,985.62
2024-05-09T03:03:36.661Z,985.68
2024-05-09T03:04:36.365Z,985.71
2024-05-09T03:05:36.490Z,985.67
2024-05-09T03:06:36.215Z,985.65
2024-05-09T03:07:36.216Z,985.64
2024-05-09T03:08:36.299Z,985.57
2024-05-09T03:09:36.572Z,985.69
2024-05-09T03:10:38.338Z,985.66
2024-05-09T03:11:36.270Z,985.66
2024-05-09T03:12:37.961Z,985.63
2024-05-09T03:13:36.120Z,985.52
2024-05-09T03:14:36.165Z,985.66
2024-05-09T03:15:36.121Z,985.67
2024-05-09T03:16:36.082Z,985.74
2024-05-09T03:17:36.318Z,985.69
2024-05-09T03:18:36.241Z,985.67
2024-05-09T03:19:36.086Z,985.69
2024-05-09T03:20:37.011Z,985.67
2024-05-09T03:21:36.018Z,985.70
2024-05-09T03:22:35.992Z,985.77
2024-05-09T03:23:36.140Z,985.70
2024-05-09T03:24:35.964Z,985.74
2024-05-09T03:25:36.125Z,985.77
2024-05-09T03:26:35.983Z,985.76
2024-05-09T03:27:35.919Z,985.74
2024-05-09T03:28:35.916Z,985.75
2024-05-09T03:29:35.924Z,985.75
2024-05-09T03:30:41.234Z,985.79
2024-05-09T03:31:36.948Z,985.78
2024-05-09T03:32:36.007Z,985.78
2024-05-09T03:33:36.012Z,985.77
2024-05-09T03:34:35.829Z,985.79
2024-05-09T03:35:35.905Z,985.79
2024-05-09T03:36:35.827Z,985.71
2024-05-09T03:37:35.801Z,985.72
2024-05-09T03:38:35.791Z,985.68
2024-05-09T03:39:35.753Z,985.65
2024-05-09T03:40:35.742Z,985.63
2024-05-09T03:41:35.864Z,985.70
2024-05-09T03:42:35.719Z,985.66
2024-05-09T03:43:35.702Z,985.66
2024-05-09T03:44:35.794Z,985.66
2024-05-09T03:45:35.675Z,985.67
2024-05-09T03:46:35.661Z,985.66
2024-05-09T03:47:35.944Z,985.68
2024-05-09T03:48:35.739Z,985.70
2024-05-09T03:49:36.235Z,985.72
2024-05-09T03:50:36.846Z,985.71
2024-05-09T03:51:35.603Z,985.66
2024-05-09T03:52:35.595Z,985.70
2024-05-09T03:53:35.720Z,985.69
2024-05-09T03:54:35.547Z,985.66
2024-05-09T03:55:35.540Z,985.73
2024-05-09T03:56:35.569Z,985.72
2024-05-09T03:57:35.538Z,985.75
2024-05-09T03:58:35.497Z,985.67
2024-05-09T03:59:35.556Z,985.72
2024-05-09T04:00:38.724Z,985.64
2024-05-09T04:01:35.633Z,985.69
2024-05-09T04:02:35.555Z,985.69
2024-05-09T04:03:35.794Z,985.74
2024-05-09T04:04:35.485Z,985.75
2024-05-09T04:05:35.505Z,985.76
2024-05-09T04:06:35.391Z,985.76
2024-05-09T04:07:35.371Z,985.77
2024-05-09T04:08:35.483Z,985.76
2024-05-09T04:09:35.355Z,985.77
2024-05-09T04:10:35.753Z,985.73
2024-05-09T04:11:35.478Z,985.79
2024-05-09T04:12:35.327Z,985.82
2024-05-09T04:13:35.786Z,985.84
2024-05-09T04:14:35.304Z,985.76
2024-05-09T04:15:35.283Z,985.73
2024-05-09T04:16:35.249Z,985.84
2024-05-09T04:17:35.587Z,985.77
2024-05-09T04:18:35.363Z,985.74
2024-05-09T04:19:35.263Z,985.67
2024-05-09T04:20:39.046Z,985.72
2024-05-09T04:21:35.187Z,985.70
2024-05-09T04:22:35.172Z,985.68
2024-05-09T04:23:35.212Z,985.65
2024-05-09T04:24:35.152Z,985.65
2024-05-09T04:25:35.203Z,985.68
2024-05-09T04:26:35.207Z,985.73
2024-05-09T04:27:35.092Z,985.67
2024-05-09T04:28:35.083Z,985.72
2024-05-09T04:29:35.120Z,985.69
2024-05-09T04:30:39.202Z,985.70
2024-05-09T04:31:36.068Z,985.73
2024-05-09T04:32:35.276Z,985.77
2024-05-09T04:33:35.188Z,985.60
2024-05-09T04:34:35.074Z,985.67
2024-05-09T04:35:35.045Z,985.65
2024-05-09T04:36:34.969Z,985.68
2024-05-09T04:37:34.956Z,985.67
2024-05-09T04:38:35.073Z,985.64
2024-05-09T04:39:34.929Z,985.75
2024-05-09T04:40:36.836Z,985.64
2024-05-09T04:41:34.954Z,985.62
2024-05-09T04:42:34.888Z,985.60
2024-05-09T04:43:34.879Z,985.63
2024-05-09T04:44:34.904Z,985.64
2024-05-09T04:45:35.425Z,985.63
2024-05-09T04:46:34.834Z,985.65
2024-05-09T04:47:35.084Z,985.76
2024-05-09T04:48:34.894Z,985.72
2024-05-09T04:49:34.984Z,985.76
2024-05-09T04:50:38.256Z,985.80
2024-05-09T04:51:34.763Z,985.71
2024-05-09T04:52:34.791Z,985.69
2024-05-09T04:53:35.106Z,985.69
2024-05-09T04:54:36.586Z,985.79
2024-05-09T04:55:34.756Z,985.66
2024-05-09T04:56:34.761Z,985.66
2024-05-09T04:57:34.702Z,985.69
2024-05-09T04:58:34.696Z,985.64
2024-05-09T04:59:34.751Z,985.65
2024-05-09T05:00:37.337Z,985.61
2024-05-09T05:01:34.688Z,985.67
2024-05-09T05:02:34.726Z,985.70
2024-05-09T05:03:34.751Z,985.68
2024-05-09T05:04:34.616Z,985.73
2024-05-09T05:05:34.664Z,985.70
2024-05-09T05:06:34.562Z,985.69
2024-05-09T05:07:34.554Z,985.67
2024-05-09T05:08:34.800Z,985.60
2024-05-09T05:09:34.517Z,985.68
2024-05-09T05:10:36.562Z,985.66
2024-05-09T05:11:34.550Z,985.64
2024-05-09T05:12:34.646Z,985.68
2024-05-09T05:13:36.101Z,985.72
2024-05-09T05:14:34.499Z,985.63
2024-05-09T05:15:34.435Z,985.59
2024-05-09T05:16:34.423Z,985.66
2024-05-09T05:17:34.731Z,985.60
2024-05-09T05:18:34.469Z,985.58
2024-05-09T05:19:34.601Z,985.62
2024-05-09T05:20:34.577Z,985.66
2024-05-09T05:21:34.391Z,985.62
2024-05-09T05:22:34.391Z,985.66
2024-05-09T05:23:34.471Z,985.69
2024-05-09T05:24:34.317Z,985.62
2024-05-09T05:25:34.573Z,985.60
2024-05-09T05:26:34.452Z,985.57
2024-05-09T05:27:34.272Z,985.62
2024-05-09T05:28:34.282Z,985.65
2024-05-09T05:29:34.464Z,985.59
2024-05-09T05:30:35.091Z,985.62
2024-05-09T05:31:34.274Z,985.66
2024-05-09T05:32:34.355Z,985.65
2024-05-09T05:33:34.335Z,985.68
2024-05-09T05:34:34.179Z,985.65
2024-05-09T05:35:34.570Z,985.74
2024-05-09T05:36:34.164Z,985.75
2024-05-09T05:37:34.297Z,985.74
2024-05-09T05:38:34.156Z,985.73
2024-05-09T05:39:34.113Z,985.73
2024-05-09T05:40:37.168Z,985.72
2024-05-09T05:41:34.128Z,985.66
2024-05-09T05:42:34.072Z,985.72
2024-05-09T05:43:34.059Z,985.65
2024-05-09T05:44:34.138Z,985.67
2024-05-09T05:45:34.061Z,985.65
2024-05-09T05:46:34.027Z,985.75
2024-05-09T05:47:34.317Z,985.70
2024-05-09T05:48:34.076Z,985.70
2024-05-09T05:49:34.070Z,985.73
2024-05-09T05:50:36.619Z,985.75
2024-05-09T05:51:33.943Z,985.69
2024-05-09T05:52:33.944Z,985.77
2024-05-09T05:53:34.556Z,985.70
2024-05-09T05:54:33.910Z,985.77
2024-05-09T05:55:33.935Z,985.79
2024-05-09T05:56:34.032Z,985.74
2024-05-09T05:57:33.867Z,985.85
2024-05-09T05:58:33.868Z,985.81
2024-05-09T05:59:33.898Z,985.86
2024-05-09T06:00:38.563Z,985.84
2024-05-09T06:01:34.894Z,985.76
2024-05-09T06:02:33.871Z,985.76
2024-05-09T06:03:33.973Z,985.90
2024-05-09T06:04:33.780Z,985.85
2024-05-09T06:05:33.913Z,985.82
2024-05-09T06:06:33.994Z,985.84
2024-05-09T06:07:33.727Z,985.85
2024-05-09T06:08:33.782Z,985.87
2024-05-09T06:09:33.704Z,985.82
2024-05-09T06:10:38.758Z,985.79
2024-05-09T06:11:34.812Z,985.82
2024-05-09T06:12:33.660Z,985.78
2024-05-09T06:13:33.658Z,985.75
2024-05-09T06:14:33.683Z,985.78
2024-05-09T06:15:33.656Z,985.79
2024-05-09T06:16:33.621Z,985.82
2024-05-09T06:17:33.752Z,985.78
2024-05-09T06:18:33.789Z,985.73
2024-05-09T06:19:33.776Z,985.76
2024-05-09T06:20:36.385Z,985.75
2024-05-09T06:21:33.537Z,985.76
2024-05-09T06:22:33.523Z,985.79
2024-05-09T06:23:33.731Z,985.77
2024-05-09T06:24:33.503Z,985.78
2024-05-09T06:25:33.489Z,985.77
2024-05-09T06:26:33.556Z,985.81
2024-05-09T06:27:33.459Z,985.77
2024-05-09T06:28:33.452Z,985.73
2024-05-09T06:29:33.500Z,985.83
2024-05-09T06:30:38.437Z,985.83
2024-05-09T06:31:34.427Z,985.72
2024-05-09T06:32:33.614Z,985.76
2024-05-09T06:33:33.835Z,985.72
2024-05-09T06:34:33.534Z,985.70
2024-05-09T06:35:33.747Z,985.70
2024-05-09T06:36:33.344Z,985.75
2024-05-09T06:37:33.335Z,985.68
2024-05-09T06:38:33.429Z,985.66
2024-05-09T06:39:33.308Z,985.63
2024-05-09T06:40:37.381Z,985.71
2024-05-09T06:41:34.410Z,985.62
2024-05-09T06:42:33.268Z,985.59
2024-05-09T06:43:33.238Z,985.57
2024-05-09T06:44:33.250Z,985.58
2024-05-09T06:45:33.210Z,985.58
2024-05-09T06:46:33.198Z,985.63
2024-05-09T06:47:33.383Z,985.71
2024-05-09T06:48:33.429Z,985.68
2024-05-09T06:49:33.301Z,985.64
2024-05-09T06:50:37.550Z,985.66
2024-05-09T06:51:34.149Z,985.67
2024-05-09T06:52:33.224Z,985.63
2024-05-09T06:53:33.384Z,985.64
2024-05-09T06:54:33.091Z,985.64
2024-05-09T06:55:33.091Z,985.56
2024-05-09T06:56:33.306Z,985.55
2024-05-09T06:57:33.070Z,985.54
2024-05-09T06:58:33.035Z,985.54
2024-05-09T06:59:33.244Z,985.50
2024-05-09T07:00:38.655Z,985.54
2024-05-09T07:01:34.042Z,985.43
2024-05-09T07:02:33.076Z,985.39
2024-05-09T07:03:33.076Z,985.41
2024-05-09T07:04:33.046Z,985.37
2024-05-09T07:05:33.182Z,985.33
2024-05-09T07:06:32.943Z,985.38
2024-05-09T07:07:32.911Z,985.35
2024-05-09T07:08:33.095Z,985.36
2024-05-09T07:09:32.886Z,985.25
2024-05-09T07:10:35.436Z,985.28
2024-05-09T07:11:32.904Z,985.19
2024-05-09T07:12:32.983Z,985.19
2024-05-09T07:13:32.827Z,985.22
2024-05-09T07:14:34.527Z,985.13
2024-05-09T07:15:32.803Z,985.09
2024-05-09T07:16:32.796Z,985.09
2024-05-09T07:17:32.894Z,985.06
2024-05-09T07:18:32.956Z,985.13
2024-05-09T07:19:32.860Z,985.06
2024-05-09T07:20:34.965Z,985.06
2024-05-09T07:21:32.723Z,985.19
2024-05-09T07:22:32.717Z,985.15
2024-05-09T07:23:32.844Z,985.21
2024-05-09T07:24:32.682Z,985.09
2024-05-09T07:25:32.675Z,985.15
2024-05-09T07:26:32.731Z,985.09
2024-05-09T07:27:32.646Z,985.16
2024-05-09T07:28:32.659Z,985.15
2024-05-09T07:29:34.706Z,985.11
2024-05-09T07:30:34.530Z,985.12
2024-05-09T07:31:32.791Z,985.06
2024-05-09T07:32:32.694Z,985.09
2024-05-09T07:33:32.724Z,985.06
2024-05-09T07:34:32.697Z,985.03
2024-05-09T07:35:32.935Z,985.07
2024-05-09T07:36:32.554Z,985.04
2024-05-09T07:37:32.519Z,985.02
2024-05-09T07:38:32.671Z,985.06
2024-05-09T07:39:32.485Z,984.95
2024-05-09T07:40:36.200Z,984.98
2024-05-09T07:41:32.608Z,984.88
2024-05-09T07:42:32.452Z,984.78
2024-05-09T07:43:32.456Z,984.83
2024-05-09T07:44:32.500Z,984.86
2024-05-09T07:45:47.596Z,984.83
2024-05-09T07:48:57.527Z,984.77
2024-05-09T07:50:34.253Z,984.76
2024-05-09T07:52:22.978Z,984.77
2024-05-09T07:53:33.029Z,984.84
2024-05-09T07:53:40.998Z,984.85
2024-05-09T07:54:33.422Z,984.86
2024-05-09T07:55:32.554Z,984.86
2024-05-09T07:56:32.414Z,984.81
2024-05-09T07:57:32.425Z,984.80
2024-05-09T07:58:32.225Z,984.86
2024-05-09T07:59:36.078Z,984.82
2024-05-09T08:00:32.362Z,984.82
2024-05-09T08:01:32.272Z,984.90
2024-05-09T08:02:32.354Z,984.84
2024-05-09T08:03:32.325Z,984.89
2024-05-09T08:04:32.270Z,984.81
2024-05-09T08:05:32.382Z,984.70
2024-05-09T08:06:32.149Z,984.77
2024-05-09T08:07:32.108Z,984.76
2024-05-09T08:08:32.108Z,984.74
2024-05-09T08:09:32.106Z,984.71
2024-05-09T08:10:32.155Z,984.67
2024-05-09T08:11:32.100Z,984.57
2024-05-09T08:12:32.074Z,984.63
2024-05-09T08:13:32.026Z,984.57
2024-05-09T08:14:32.012Z,984.56
2024-05-09T08:15:32.066Z,984.47
2024-05-09T08:16:32.073Z,984.47
2024-05-09T08:17:32.060Z,984.54
2024-05-09T08:18:32.267Z,984.53
2024-05-09T08:19:31.978Z,984.43
2024-05-09T08:20:35.222Z,984.41
2024-05-09T08:21:31.987Z,984.48
2024-05-09T08:22:31.902Z,984.39
2024-05-09T08:23:31.911Z,984.45
2024-05-09T08:24:31.952Z,984.34
2024-05-09T08:25:31.939Z,984.42
2024-05-09T08:26:31.848Z,984.35
2024-05-09T08:27:32.433Z,984.37
2024-05-09T08:28:31.985Z,984.39
2024-05-09T08:29:31.812Z,984.32
2024-05-09T08:30:36.570Z,984.34
2024-05-09T08:31:32.895Z,984.25
2024-05-09T08:32:31.873Z,984.24
2024-05-09T08:33:32.090Z,984.28
2024-05-09T08:34:31.906Z,984.29
2024-05-09T08:35:31.816Z,984.27
2024-05-09T08:36:31.799Z,984.18
2024-05-09T08:37:36.690Z,984.22
2024-05-09T08:38:32.722Z,984.28
2024-05-09T08:39:31.727Z,984.32
2024-05-09T08:40:35.324Z,984.17
2024-05-09T08:41:31.715Z,984.19
2024-05-09T08:42:31.711Z,984.32
2024-05-09T08:43:31.718Z,984.35
2024-05-09T08:44:32.071Z,984.35
2024-05-09T08:45:31.659Z,984.33
2024-05-09T08:46:31.754Z,984.33
2024-05-09T08:47:31.761Z,984.34
2024-05-09T08:48:31.786Z,984.35
2024-05-09T08:49:31.765Z,984.30
2024-05-09T08:50:37.974Z,984.42
2024-05-09T08:51:32.592Z,984.42
2024-05-09T08:52:31.554Z,984.34
2024-05-09T08:53:31.498Z,984.34
2024-05-09T08:54:31.575Z,984.31
2024-05-09T08:55:31.485Z,984.27
2024-05-09T08:56:31.474Z,984.29
2024-05-09T08:57:31.476Z,984.33
2024-05-09T08:58:31.429Z,984.24
2024-05-09T08:59:31.518Z,984.22
2024-05-09T09:00:36.616Z,984.18
2024-05-09T09:01:32.486Z,984.15
2024-05-09T09:02:31.656Z,984.26
2024-05-09T09:03:31.693Z,984.27
2024-05-09T09:04:31.468Z,984.24
2024-05-09T09:05:32.006Z,984.28
2024-05-09T09:06:31.381Z,984.28
2024-05-09T09:07:31.404Z,984.29
2024-05-09T09:08:31.749Z,984.34
2024-05-09T09:09:31.331Z,984.22
2024-05-09T09:10:32.736Z,984.18
2024-05-09T09:11:31.291Z,984.19
2024-05-09T09:12:31.304Z,984.21
2024-05-09T09:13:31.240Z,984.15
2024-05-09T09:14:31.237Z,984.19
2024-05-09T09:15:31.307Z,984.18
2024-05-09T09:16:31.234Z,984.13
2024-05-09T09:17:31.241Z,984.07
2024-05-09T09:18:31.478Z,984.09
2024-05-09T09:19:31.225Z,984.08
2024-05-09T09:20:36.371Z,984.07
2024-05-09T09:21:31.142Z,984.03
2024-05-09T09:22:31.114Z,984.01
2024-05-09T09:23:31.333Z,984.05
2024-05-09T09:24:31.122Z,984.04
2024-05-09T09:25:31.077Z,984.04
2024-05-09T09:26:31.063Z,984.06
2024-05-09T09:27:31.094Z,984.03
2024-05-09T09:28:31.053Z,983.91
2024-05-09T09:29:31.036Z,983.89
2024-05-09T09:30:36.731Z,983.91
2024-05-09T09:31:32.141Z,983.91
2024-05-09T09:32:31.082Z,983.88
2024-05-09T09:33:31.187Z,983.89
2024-05-09T09:34:31.717Z,983.83
2024-05-09T09:35:30.976Z,983.82
2024-05-09T09:36:30.984Z,983.69
2024-05-09T09:37:30.924Z,983.75
2024-05-09T09:38:30.905Z,983.85
2024-05-09T09:39:30.957Z,983.77
2024-05-09T09:40:32.984Z,983.80
2024-05-09T09:41:30.868Z,983.74
2024-05-09T09:42:30.908Z,983.81
2024-05-09T09:43:30.852Z,983.83
2024-05-09T09:44:30.842Z,983.74
2024-05-09T09:45:30.867Z,983.84
2024-05-09T09:46:30.923Z,983.94
2024-05-09T09:47:30.901Z,983.92
2024-05-09T09:48:30.979Z,983.84
2024-05-09T09:49:30.838Z,983.96
2024-05-09T09:50:34.494Z,983.86
2024-05-09T09:51:30.787Z,983.91
2024-05-09T09:52:30.751Z,983.97
2024-05-09T09:53:30.708Z,983.86
2024-05-09T09:54:30.724Z,983.94
2024-05-09T09:55:30.686Z,983.96
2024-05-09T09:56:30.676Z,983.92
2024-05-09T09:57:30.705Z,983.99
2024-05-09T09:58:30.724Z,983.91
2024-05-09T09:59:30.631Z,983.90
2024-05-09T10:00:33.282Z,983.95
2024-05-09T10:01:30.808Z,983.85
2024-05-09T10:02:30.763Z,983.82
2024-05-09T10:03:30.788Z,983.76
2024-05-09T10:04:30.650Z,983.77
2024-05-09T10:05:31.072Z,983.72
2024-05-09T10:06:30.626Z,983.80
2024-05-09T10:07:30.543Z,983.73
2024-05-09T10:08:30.577Z,983.79
2024-05-09T10:09:30.574Z,983.80
2024-05-09T10:10:32.884Z,983.71
2024-05-09T10:11:31.673Z,983.77
2024-05-09T10:12:30.580Z,983.74
2024-05-09T10:13:30.491Z,983.79
2024-05-09T10:14:30.452Z,983.65
2024-05-09T10:15:30.454Z,983.73
2024-05-09T10:16:30.460Z,983.72
2024-05-09T10:17:30.464Z,983.67
2024-05-09T10:18:32.033Z,983.62
2024-05-09T10:19:30.418Z,983.60
2024-05-09T10:21:30.539Z,983.52
2024-05-09T10:22:30.329Z,983.51
2024-05-09T10:23:30.308Z,983.55
2024-05-09T10:24:30.326Z,983.52
2024-05-09T10:25:30.366Z,983.51
2024-05-09T10:26:30.272Z,983.53
2024-05-09T10:27:30.286Z,983.50
2024-05-09T10:28:30.706Z,983.46
2024-05-09T10:29:30.237Z,983.41
2024-05-09T10:30:35.782Z,983.38
2024-05-09T10:31:31.418Z,983.36
2024-05-09T10:32:30.286Z,983.29
2024-05-09T10:33:30.540Z,983.38
2024-05-09T10:34:30.254Z,983.33
2024-05-09T10:35:30.151Z,983.34
2024-05-09T10:36:30.179Z,983.36
2024-05-09T10:37:30.442Z,983.32
2024-05-09T10:38:30.111Z,983.32
2024-05-09T10:39:30.155Z,983.29
2024-05-09T10:40:31.814Z,983.51
2024-05-09T10:41:30.081Z,983.34
2024-05-09T10:42:30.169Z,983.29
2024-05-09T10:43:30.181Z,983.26
2024-05-09T10:44:30.035Z,983.22
2024-05-09T10:45:30.129Z,983.19
2024-05-09T10:46:30.049Z,983.10
2024-05-09T10:47:30.423Z,983.17
2024-05-09T10:48:30.141Z,983.13
2024-05-09T10:49:30.019Z,983.18
2024-05-09T10:50:34.089Z,983.11
2024-05-09T10:51:29.959Z,983.16
2024-05-09T10:52:29.934Z,983.11
2024-05-09T10:53:29.918Z,983.05
2024-05-09T10:54:29.947Z,982.99
2024-05-09T10:55:29.946Z,983.03
2024-05-09T10:56:29.877Z,983.00
2024-05-09T10:57:29.924Z,983.00
2024-05-09T10:58:29.855Z,982.95
2024-05-09T10:59:29.875Z,982.88
2024-05-09T11:00:33.895Z,982.82
2024-05-09T11:01:30.945Z,982.85
2024-05-09T11:02:29.916Z,982.83
2024-05-09T11:03:30.053Z,982.91
2024-05-09T11:04:29.884Z,982.86
2024-05-09T11:05:29.873Z,982.89
2024-05-09T11:06:29.771Z,982.97
2024-05-09T11:07:29.788Z,983.02
2024-05-09T11:08:29.726Z,983.11
2024-05-09T11:09:29.753Z,983.07
2024-05-09T11:10:33.810Z,983.22
2024-05-09T11:11:29.729Z,983.14
2024-05-09T11:12:29.712Z,983.13
2024-05-09T11:13:29.679Z,982.99
2024-05-09T11:14:29.653Z,983.12
2024-05-09T11:15:29.675Z,983.02
2024-05-09T11:16:29.699Z,983.04
2024-05-09T11:17:29.675Z,982.98
2024-05-09T11:18:32.307Z,983.07
2024-05-09T11:19:29.704Z,983.11
2024-05-09T11:20:30.313Z,983.22
2024-05-09T11:21:29.643Z,983.26
2024-05-09T11:22:29.562Z,983.24
2024-05-09T11:23:29.538Z,983.09
2024-05-09T11:24:29.571Z,983.11
2024-05-09T11:25:29.508Z,982.90
2024-05-09T11:26:29.678Z,982.99
2024-05-09T11:27:29.545Z,982.94
2024-05-09T11:28:29.461Z,982.99
2024-05-09T11:29:29.454Z,982.88
2024-05-09T11:30:31.906Z,982.98
2024-05-09T11:31:29.619Z,983.07
2024-05-09T11:32:29.745Z,983.07
2024-05-09T11:33:29.546Z,983.02
2024-05-09T11:34:29.488Z,983.07
2024-05-09T11:35:29.428Z,983.13
2024-05-09T11:36:29.414Z,983.17
2024-05-09T11:37:29.397Z,983.12
2024-05-09T11:38:29.333Z,983.09
2024-05-09T11:39:29.363Z,983.16
2024-05-09T11:40:34.191Z,983.18
2024-05-09T11:41:29.298Z,983.15
2024-05-09T11:42:29.321Z,983.12
2024-05-09T11:43:29.409Z,983.19
2024-05-09T11:44:29.268Z,983.22
2024-05-09T11:45:29.279Z,983.24
2024-05-09T11:46:29.427Z,983.18
2024-05-09T11:47:29.281Z,983.19
2024-05-09T11:48:29.427Z,983.27
2024-05-09T11:49:29.300Z,983.25
2024-05-09T11:50:32.930Z,983.20
2024-05-09T11:51:30.210Z,983.27
2024-05-09T11:52:29.163Z,983.25
2024-05-09T11:53:29.132Z,983.27
2024-05-09T11:54:29.414Z,983.29
2024-05-09T11:55:29.286Z,983.22
2024-05-09T11:56:29.091Z,983.20
2024-05-09T11:57:29.117Z,983.15
2024-05-09T11:58:29.089Z,983.21
2024-05-09T11:59:29.060Z,983.12
2024-05-09T12:00:36.098Z,983.10
2024-05-09T12:01:30.195Z,983.09
2024-05-09T12:02:29.496Z,983.17
2024-05-09T12:03:29.150Z,983.22
2024-05-09T12:04:29.209Z,983.10
2024-05-09T12:05:29.286Z,983.10
2024-05-09T12:06:28.977Z,983.11
2024-05-09T12:07:28.960Z,983.14
2024-05-09T12:08:28.948Z,983.03
2024-05-09T12:09:29.017Z,983.12
2024-05-09T12:10:33.525Z,983.15
2024-05-09T12:11:29.948Z,983.13
2024-05-09T12:12:28.931Z,983.07
2024-05-09T12:13:28.952Z,983.09
2024-05-09T12:14:28.874Z,983.10
2024-05-09T12:15:29.000Z,983.06
2024-05-09T12:16:28.952Z,983.15
2024-05-09T12:17:28.995Z,983.10
2024-05-09T12:18:28.961Z,983.16
2024-05-09T12:19:28.837Z,983.11
2024-05-09T12:20:35.974Z,983.13
2024-05-09T12:21:29.857Z,983.13
2024-05-09T12:22:28.750Z,983.12
2024-05-09T12:23:28.733Z,983.14
2024-05-09T12:24:28.819Z,983.16
2024-05-09T12:25:29.154Z,983.05
2024-05-09T12:26:28.692Z,983.06
2024-05-09T12:27:28.710Z,983.08
2024-05-09T12:28:28.711Z,983.04
2024-05-09T12:29:28.655Z,983.09
2024-05-09T12:30:35.990Z,983.09
2024-05-09T12:31:29.681Z,983.11
2024-05-09T12:32:28.761Z,983.07